Windermere, FL (34786)

7:24 PM EST on January 23, 2017 (GMT -0500)
Windermere Wylde | | Change Station

Elev 154 ft 28.50 °N, 81.50 °W | Updated 6 seconds ago

Partly Cloudy
Partly Cloudy
61.3 °F
Feels Like 61.3 °F
N
2.5
Wind Variable Wind from NE
Gusts 2.5 mph

Today
High -- | Low -- °F
--% Chance of Precip.
Yesterday
High -- | Low -- °F
Precip. -- in
Pressure 29.61 in
Visibility 10.0 miles
Clouds Mostly Cloudy 3700 ft
Dew Point 55 °F
Humidity 79%
Rainfall 0.00 in
Snow Depth Not available.
7:17 AM 5:58 PM
Waning Crescent, 15% visible
METAR KORL 232353Z 27020G26KT 10SM BKN037 18/11 A2959 RMK AO2 PK WND 28026/2351 SLP025 T01780111 10228 20178 51025
Pressure 29.61 in
Visibility 10.0 miles
Clouds Mostly Cloudy 3700 ft
Dew Point 55 °F
Humidity 79%
Rainfall 0.00 in
Snow Depth Not available.
7:17 AM 5:58 PM
Waning Crescent, 15% visible
METAR KORL 232353Z 27020G26KT 10SM BKN037 18/11 A2959 RMK AO2 PK WND 28026/2351 SLP025 T01780111 10228 20178 51025

Get Your Daily Forecast Email!

Thanks for signing up!

Be on the lookout for a verification email in your inbox.

You'll start receiving the daily forecast at 8 AM.

×

10-Day Weather Forecast

Almanac

Astronomy

Jan. 23, 2017 Rise Set
Actual Time
Civil Twilight
Nautical Twilight
Astronomical Twilight
Moon
Length of Visible Light
Length of Day
Tomorrow will be .
, % of the Moon is Illuminated

Today's Extremes

State Highs State Lows

Community

WunderPhotos

Upload Photos

1,962,540 photos uploaded!

WunderBlog® & News

Nearby

Air Quality

  Air Quality AQ Index Pollutant
Not available.

Snow Depth

Station Depth Elevation

Earthquake Activity

City Distance Mag. Time & Date
Minimum magnitude displayed is 2.5.

Coastal Water Temperatures

Place Temperature

Stations

Nearby Weather Stations

Station Location Temp. Windchill Dew Point Humidity Wind Precip. Elev Updated Type
                   

Watches & Warnings

Gale Warning, Small Craft Advisory
Issued: 3:37 PM EST Jan. 23, 2017 – National Weather Service

... Gale Warning remains in effect until 11 PM EST this evening...
... Small Craft Advisory now in effect from 11 PM this evening to
11 am EST Tuesday...

* winds... west winds up to 25 to 30 knots with frequent gusts to
gale force expected through late evening... then becoming west-
northwest 20 to 25 knots after midnight.

* Waves/seas... seas building up to 9 to 12 feet offshore.

Precautionary/preparedness actions...

A Gale Warning means winds of 34 to 47 knots are imminent or
occurring. Operating a vessel in gale conditions requires
experience and properly equipped vessels. It is highly
recommended that mariners without the proper experience seek safe
Harbor prior to the onset of gale conditions.

A Small Craft Advisory means that wind speeds of 20 to 33 knots
are expected to produce hazardous wave conditions to small craft.
Inexperienced mariners... especially those operating smaller
vessels should avoid navigating in these conditions.